sensor_id;sensor_type;location;lat;lon;timestamp;P1;durP1;ratioP1;P2;durP2;ratioP2
24644;SDS011;12780;45.502;9.146;2022-12-11T00:01:54;26.95;;;14.07;;
24644;SDS011;12780;45.502;9.146;2022-12-11T00:04:20;26.27;;;12.93;;
24644;SDS011;12780;45.502;9.146;2022-12-11T00:06:46;26.10;;;13.73;;
24644;SDS011;12780;45.502;9.146;2022-12-11T00:09:14;26.35;;;13.15;;
24644;SDS011;12780;45.502;9.146;2022-12-11T00:11:44;28.48;;;13.48;;
24644;SDS011;12780;45.502;9.146;2022-12-11T00:14:11;27.02;;;13.73;;
24644;SDS011;12780;45.502;9.146;2022-12-11T00:16:37;27.70;;;13.85;;
24644;SDS011;12780;45.502;9.146;2022-12-11T00:19:03;28.00;;;14.20;;
24644;SDS011;12780;45.502;9.146;2022-12-11T00:21:29;32.45;;;14.50;;
24644;SDS011;12780;45.502;9.146;2022-12-11T00:23:54;28.98;;;13.65;;
24644;SDS011;12780;45.502;9.146;2022-12-11T00:26:20;27.65;;;14.02;;
24644;SDS011;12780;45.502;9.146;2022-12-11T00:28:46;33.67;;;16.52;;
24644;SDS011;12780;45.502;9.146;2022-12-11T00:31:14;30.63;;;16.20;;
24644;SDS011;12780;45.502;9.146;2022-12-11T00:33:42;27.23;;;14.70;;
24644;SDS011;12780;45.502;9.146;2022-12-11T00:36:12;30.17;;;15.48;;
24644;SDS011;12780;45.502;9.146;2022-12-11T00:38:39;29.25;;;14.85;;
24644;SDS011;12780;45.502;9.146;2022-12-11T00:41:05;35.88;;;16.92;;
24644;SDS011;12780;45.502;9.146;2022-12-11T00:43:30;32.55;;;15.88;;
24644;SDS011;12780;45.502;9.146;2022-12-11T00:45:56;25.15;;;13.43;;
24644;SDS011;12780;45.502;9.146;2022-12-11T00:48:22;28.90;;;14.02;;
24644;SDS011;12780;45.502;9.146;2022-12-11T00:50:48;32.35;;;15.80;;
24644;SDS011;12780;45.502;9.146;2022-12-11T00:53:13;32.47;;;15.30;;
24644;SDS011;12780;45.502;9.146;2022-12-11T00:55:40;30.75;;;14.25;;
24644;SDS011;12780;45.502;9.146;2022-12-11T00:58:06;27.80;;;13.98;;
24644;SDS011;12780;45.502;9.146;2022-12-11T01:00:33;28.42;;;13.48;;
24644;SDS011;12780;45.502;9.146;2022-12-11T01:02:58;26.17;;;13.40;;
24644;SDS011;12780;45.502;9.146;2022-12-11T01:05:24;30.63;;;15.65;;
24644;SDS011;12780;45.502;9.146;2022-12-11T01:07:49;30.08;;;15.20;;
24644;SDS011;12780;45.502;9.146;2022-12-11T01:10:15;31.33;;;14.25;;
24644;SDS011;12780;45.502;9.146;2022-12-11T01:12:54;29.65;;;13.93;;
24644;SDS011;12780;45.502;9.146;2022-12-11T01:15:22;26.20;;;14.27;;
24644;SDS011;12780;45.502;9.146;2022-12-11T01:17:50;28.45;;;13.60;;
24644;SDS011;12780;45.502;9.146;2022-12-11T01:20:16;25.05;;;13.20;;
24644;SDS011;12780;45.502;9.146;2022-12-11T01:22:42;30.33;;;14.32;;
24644;SDS011;12780;45.502;9.146;2022-12-11T01:25:08;28.52;;;14.13;;
24644;SDS011;12780;45.502;9.146;2022-12-11T01:27:35;27.48;;;14.30;;
24644;SDS011;12780;45.502;9.146;2022-12-11T01:30:01;28.65;;;13.70;;
24644;SDS011;12780;45.502;9.146;2022-12-11T01:32:27;26.83;;;14.13;;
24644;SDS011;12780;45.502;9.146;2022-12-11T01:34:53;29.48;;;14.55;;
24644;SDS011;12780;45.502;9.146;2022-12-11T01:37:19;28.98;;;14.75;;
24644;SDS011;12780;45.502;9.146;2022-12-11T01:39:45;30.20;;;15.32;;
24644;SDS011;12780;45.502;9.146;2022-12-11T01:42:14;30.92;;;14.93;;
24644;SDS011;12780;45.502;9.146;2022-12-11T01:47:08;67.97;;;15.00;;
24644;SDS011;12780;45.502;9.146;2022-12-11T01:49:34;63.65;;;16.13;;
24644;SDS011;12780;45.502;9.146;2022-12-11T01:52:04;88.32;;;16.63;;
24644;SDS011;12780;45.502;9.146;2022-12-11T01:54:36;87.05;;;16.70;;
24644;SDS011;12780;45.502;9.146;2022-12-11T01:57:06;92.72;;;17.50;;
24644;SDS011;12780;45.502;9.146;2022-12-11T01:59:34;69.70;;;16.45;;
24644;SDS011;12780;45.502;9.146;2022-12-11T02:02:03;91.80;;;17.60;;
24644;SDS011;12780;45.502;9.146;2022-12-11T02:04:33;99.85;;;17.88;;
24644;SDS011;12780;45.502;9.146;2022-12-11T02:07:01;59.00;;;16.92;;
24644;SDS011;12780;45.502;9.146;2022-12-11T02:09:29;103.45;;;16.98;;
24644;SDS011;12780;45.502;9.146;2022-12-11T02:12:07;97.95;;;17.75;;
24644;SDS011;12780;45.502;9.146;2022-12-11T02:17:33;118.32;;;17.73;;
24644;SDS011;12780;45.502;9.146;2022-12-11T02:20:16;108.68;;;16.80;;
24644;SDS011;12780;45.502;9.146;2022-12-11T02:31:13;93.47;;;15.73;;
24644;SDS011;12780;45.502;9.146;2022-12-11T02:34:03;159.05;;;16.98;;
24644;SDS011;12780;45.502;9.146;2022-12-11T02:36:42;163.18;;;16.92;;
24644;SDS011;12780;45.502;9.146;2022-12-11T02:39:12;132.20;;;16.25;;
24644;SDS011;12780;45.502;9.146;2022-12-11T02:41:40;91.63;;;16.00;;
24644;SDS011;12780;45.502;9.146;2022-12-11T02:44:10;133.23;;;14.95;;
24644;SDS011;12780;45.502;9.146;2022-12-11T02:46:37;125.03;;;15.38;;
24644;SDS011;12780;45.502;9.146;2022-12-11T02:49:05;90.85;;;13.85;;
24644;SDS011;12780;45.502;9.146;2022-12-11T02:51:33;50.00;;;13.20;;
24644;SDS011;12780;45.502;9.146;2022-12-11T02:54:03;47.35;;;12.98;;
24644;SDS011;12780;45.502;9.146;2022-12-11T02:56:35;84.25;;;14.02;;
24644;SDS011;12780;45.502;9.146;2022-12-11T02:59:09;70.20;;;13.88;;
24644;SDS011;12780;45.502;9.146;2022-12-11T03:01:42;81.45;;;13.52;;
24644;SDS011;12780;45.502;9.146;2022-12-11T03:04:07;29.60;;;12.48;;
24644;SDS011;12780;45.502;9.146;2022-12-11T03:06:38;37.17;;;12.85;;
24644;SDS011;12780;45.502;9.146;2022-12-11T03:09:08;54.33;;;12.95;;
24644;SDS011;12780;45.502;9.146;2022-12-11T03:11:34;83.18;;;13.25;;
24644;SDS011;12780;45.502;9.146;2022-12-11T03:14:00;43.42;;;12.82;;
24644;SDS011;12780;45.502;9.146;2022-12-11T03:16:32;46.65;;;13.25;;
24644;SDS011;12780;45.502;9.146;2022-12-11T03:24:45;23.33;;;12.35;;
24644;SDS011;12780;45.502;9.146;2022-12-11T03:29:50;60.80;;;13.55;;
24644;SDS011;12780;45.502;9.146;2022-12-11T03:32:23;91.28;;;14.52;;
24644;SDS011;12780;45.502;9.146;2022-12-11T03:37:30;51.97;;;13.25;;
24644;SDS011;12780;45.502;9.146;2022-12-11T03:40:01;53.33;;;13.45;;
24644;SDS011;12780;45.502;9.146;2022-12-11T03:42:31;37.35;;;13.52;;
24644;SDS011;12780;45.502;9.146;2022-12-11T03:44:59;37.25;;;13.70;;
24644;SDS011;12780;45.502;9.146;2022-12-11T03:47:27;26.17;;;12.90;;
24644;SDS011;12780;45.502;9.146;2022-12-11T03:49:53;35.78;;;12.77;;
24644;SDS011;12780;45.502;9.146;2022-12-11T03:52:22;25.88;;;10.95;;
24644;SDS011;12780;45.502;9.146;2022-12-11T03:54:51;20.23;;;10.75;;
24644;SDS011;12780;45.502;9.146;2022-12-11T03:57:19;20.98;;;10.95;;
24644;SDS011;12780;45.502;9.146;2022-12-11T03:59:48;17.70;;;9.90;;
24644;SDS011;12780;45.502;9.146;2022-12-11T04:02:14;19.58;;;11.00;;
24644;SDS011;12780;45.502;9.146;2022-12-11T04:04:40;22.83;;;10.77;;
24644;SDS011;12780;45.502;9.146;2022-12-11T04:07:06;19.95;;;10.65;;
24644;SDS011;12780;45.502;9.146;2022-12-11T04:09:32;18.38;;;9.15;;
24644;SDS011;12780;45.502;9.146;2022-12-11T04:11:58;14.93;;;8.63;;
24644;SDS011;12780;45.502;9.146;2022-12-11T04:14:24;15.55;;;9.15;;
24644;SDS011;12780;45.502;9.146;2022-12-11T04:17:08;15.75;;;8.98;;
24644;SDS011;12780;45.502;9.146;2022-12-11T04:19:34;15.63;;;9.10;;
24644;SDS011;12780;45.502;9.146;2022-12-11T04:22:18;15.82;;;8.93;;
24644;SDS011;12780;45.502;9.146;2022-12-11T04:25:03;15.15;;;8.43;;
24644;SDS011;12780;45.502;9.146;2022-12-11T04:27:30;14.63;;;8.50;;
24644;SDS011;12780;45.502;9.146;2022-12-11T04:30:15;13.85;;;7.90;;
24644;SDS011;12780;45.502;9.146;2022-12-11T04:32:44;16.38;;;7.82;;
24644;SDS011;12780;45.502;9.146;2022-12-11T04:35:09;16.40;;;8.30;;
24644;SDS011;12780;45.502;9.146;2022-12-11T04:37:36;15.93;;;8.18;;
24644;SDS011;12780;45.502;9.146;2022-12-11T04:40:03;12.63;;;7.55;;
24644;SDS011;12780;45.502;9.146;2022-12-11T04:42:30;16.55;;;8.50;;
24644;SDS011;12780;45.502;9.146;2022-12-11T04:44:55;14.00;;;7.50;;
24644;SDS011;12780;45.502;9.146;2022-12-11T04:47:21;11.68;;;7.68;;
24644;SDS011;12780;45.502;9.146;2022-12-11T04:49:46;14.23;;;7.80;;
24644;SDS011;12780;45.502;9.146;2022-12-11T04:52:12;14.77;;;8.13;;
24644;SDS011;12780;45.502;9.146;2022-12-11T04:54:38;13.55;;;7.68;;
24644;SDS011;12780;45.502;9.146;2022-12-11T04:57:04;12.40;;;7.57;;
24644;SDS011;12780;45.502;9.146;2022-12-11T04:59:30;13.05;;;7.60;;
24644;SDS011;12780;45.502;9.146;2022-12-11T05:01:56;15.02;;;7.93;;
24644;SDS011;12780;45.502;9.146;2022-12-11T05:04:22;12.35;;;8.02;;
24644;SDS011;12780;45.502;9.146;2022-12-11T05:06:48;13.38;;;8.77;;
24644;SDS011;12780;45.502;9.146;2022-12-11T05:09:14;11.82;;;7.25;;
24644;SDS011;12780;45.502;9.146;2022-12-11T05:11:40;12.13;;;7.22;;
24644;SDS011;12780;45.502;9.146;2022-12-11T05:14:06;15.00;;;7.70;;
24644;SDS011;12780;45.502;9.146;2022-12-11T05:16:31;13.43;;;7.38;;
24644;SDS011;12780;45.502;9.146;2022-12-11T05:18:57;10.90;;;6.70;;
24644;SDS011;12780;45.502;9.146;2022-12-11T05:21:23;11.13;;;7.00;;
24644;SDS011;12780;45.502;9.146;2022-12-11T05:23:48;13.00;;;7.20;;
24644;SDS011;12780;45.502;9.146;2022-12-11T05:26:15;12.32;;;7.57;;
24644;SDS011;12780;45.502;9.146;2022-12-11T05:28:42;12.98;;;7.07;;
24644;SDS011;12780;45.502;9.146;2022-12-11T05:31:13;12.00;;;7.20;;
24644;SDS011;12780;45.502;9.146;2022-12-11T05:33:41;13.20;;;6.78;;
24644;SDS011;12780;45.502;9.146;2022-12-11T05:36:08;12.32;;;6.43;;
24644;SDS011;12780;45.502;9.146;2022-12-11T05:38:39;10.60;;;5.78;;
24644;SDS011;12780;45.502;9.146;2022-12-11T05:41:05;10.95;;;5.93;;
24644;SDS011;12780;45.502;9.146;2022-12-11T05:43:32;12.20;;;6.78;;
24644;SDS011;12780;45.502;9.146;2022-12-11T05:46:06;10.45;;;6.47;;
24644;SDS011;12780;45.502;9.146;2022-12-11T05:48:36;13.48;;;6.63;;
24644;SDS011;12780;45.502;9.146;2022-12-11T05:51:03;10.80;;;5.50;;
24644;SDS011;12780;45.502;9.146;2022-12-11T05:53:30;9.82;;;5.07;;
24644;SDS011;12780;45.502;9.146;2022-12-11T05:56:00;10.05;;;4.93;;
24644;SDS011;12780;45.502;9.146;2022-12-11T05:58:27;11.45;;;4.78;;
24644;SDS011;12780;45.502;9.146;2022-12-11T06:00:53;9.95;;;4.63;;
24644;SDS011;12780;45.502;9.146;2022-12-11T06:03:19;5.57;;;3.72;;
24644;SDS011;12780;45.502;9.146;2022-12-11T06:05:44;8.02;;;3.65;;
24644;SDS011;12780;45.502;9.146;2022-12-11T06:08:10;7.32;;;4.05;;
24644;SDS011;12780;45.502;9.146;2022-12-11T06:10:36;7.65;;;3.90;;
24644;SDS011;12780;45.502;9.146;2022-12-11T06:13:01;8.38;;;3.92;;
24644;SDS011;12780;45.502;9.146;2022-12-11T06:15:27;6.07;;;3.30;;
24644;SDS011;12780;45.502;9.146;2022-12-11T06:17:53;4.88;;;3.05;;
24644;SDS011;12780;45.502;9.146;2022-12-11T06:20:18;5.45;;;3.15;;
24644;SDS011;12780;45.502;9.146;2022-12-11T06:22:44;5.47;;;3.08;;
24644;SDS011;12780;45.502;9.146;2022-12-11T06:25:09;5.15;;;3.35;;
24644;SDS011;12780;45.502;9.146;2022-12-11T06:27:35;7.65;;;3.40;;
24644;SDS011;12780;45.502;9.146;2022-12-11T06:30:00;7.80;;;2.88;;
24644;SDS011;12780;45.502;9.146;2022-12-11T06:32:26;4.40;;;2.45;;
24644;SDS011;12780;45.502;9.146;2022-12-11T06:34:52;4.00;;;2.55;;
24644;SDS011;12780;45.502;9.146;2022-12-11T06:37:17;6.25;;;2.70;;
24644;SDS011;12780;45.502;9.146;2022-12-11T06:39:44;4.25;;;2.70;;
24644;SDS011;12780;45.502;9.146;2022-12-11T06:42:09;2.97;;;1.67;;
24644;SDS011;12780;45.502;9.146;2022-12-11T06:44:35;4.03;;;2.50;;
24644;SDS011;12780;45.502;9.146;2022-12-11T06:47:02;6.32;;;3.10;;
24644;SDS011;12780;45.502;9.146;2022-12-11T06:49:27;9.70;;;2.67;;
24644;SDS011;12780;45.502;9.146;2022-12-11T06:51:54;7.72;;;3.15;;
24644;SDS011;12780;45.502;9.146;2022-12-11T06:54:19;4.03;;;2.35;;
24644;SDS011;12780;45.502;9.146;2022-12-11T06:56:49;6.82;;;2.65;;
24644;SDS011;12780;45.502;9.146;2022-12-11T06:59:14;4.70;;;2.80;;
24644;SDS011;12780;45.502;9.146;2022-12-11T07:01:40;5.00;;;2.75;;
24644;SDS011;12780;45.502;9.146;2022-12-11T07:04:05;3.13;;;1.25;;
24644;SDS011;12780;45.502;9.146;2022-12-11T07:06:33;5.25;;;2.90;;
24644;SDS011;12780;45.502;9.146;2022-12-11T07:08:58;6.18;;;3.30;;
24644;SDS011;12780;45.502;9.146;2022-12-11T07:11:24;4.40;;;2.60;;
24644;SDS011;12780;45.502;9.146;2022-12-11T07:13:49;4.63;;;1.40;;
24644;SDS011;12780;45.502;9.146;2022-12-11T07:16:15;9.55;;;1.30;;
24644;SDS011;12780;45.502;9.146;2022-12-11T07:18:42;3.67;;;1.48;;
24644;SDS011;12780;45.502;9.146;2022-12-11T07:21:12;2.35;;;1.25;;
24644;SDS011;12780;45.502;9.146;2022-12-11T07:23:38;3.30;;;1.60;;
24644;SDS011;12780;45.502;9.146;2022-12-11T07:26:05;2.85;;;1.98;;
24644;SDS011;12780;45.502;9.146;2022-12-11T07:28:32;2.78;;;1.65;;
24644;SDS011;12780;45.502;9.146;2022-12-11T07:30:58;3.13;;;1.80;;
24644;SDS011;12780;45.502;9.146;2022-12-11T07:33:28;9.98;;;1.98;;
24644;SDS011;12780;45.502;9.146;2022-12-11T07:35:54;6.85;;;2.00;;
24644;SDS011;12780;45.502;9.146;2022-12-11T07:38:19;9.43;;;2.97;;
24644;SDS011;12780;45.502;9.146;2022-12-11T07:40:45;8.52;;;2.78;;
24644;SDS011;12780;45.502;9.146;2022-12-11T07:43:10;5.13;;;2.70;;
24644;SDS011;12780;45.502;9.146;2022-12-11T07:45:36;8.23;;;3.65;;
24644;SDS011;12780;45.502;9.146;2022-12-11T07:48:02;5.45;;;2.20;;
24644;SDS011;12780;45.502;9.146;2022-12-11T07:50:28;4.25;;;2.20;;
24644;SDS011;12780;45.502;9.146;2022-12-11T07:52:53;7.18;;;1.90;;
24644;SDS011;12780;45.502;9.146;2022-12-11T07:55:19;2.78;;;1.83;;
24644;SDS011;12780;45.502;9.146;2022-12-11T07:57:44;2.80;;;1.45;;
24644;SDS011;12780;45.502;9.146;2022-12-11T08:00:10;1.42;;;0.93;;
24644;SDS011;12780;45.502;9.146;2022-12-11T08:02:36;0.88;;;0.80;;
24644;SDS011;12780;45.502;9.146;2022-12-11T08:05:02;7.68;;;1.17;;
24644;SDS011;12780;45.502;9.146;2022-12-11T08:07:27;2.55;;;0.98;;
24644;SDS011;12780;45.502;9.146;2022-12-11T08:09:53;2.22;;;1.02;;
24644;SDS011;12780;45.502;9.146;2022-12-11T08:12:18;2.10;;;0.90;;
24644;SDS011;12780;45.502;9.146;2022-12-11T08:14:44;4.55;;;1.10;;
24644;SDS011;12780;45.502;9.146;2022-12-11T08:17:10;3.08;;;1.17;;
24644;SDS011;12780;45.502;9.146;2022-12-11T08:19:35;1.45;;;1.00;;
24644;SDS011;12780;45.502;9.146;2022-12-11T08:22:01;2.75;;;1.02;;
24644;SDS011;12780;45.502;9.146;2022-12-11T08:24:27;2.03;;;1.20;;
24644;SDS011;12780;45.502;9.146;2022-12-11T08:26:52;1.70;;;1.10;;
24644;SDS011;12780;45.502;9.146;2022-12-11T08:29:18;3.50;;;1.00;;
24644;SDS011;12780;45.502;9.146;2022-12-11T08:31:43;2.85;;;1.10;;
24644;SDS011;12780;45.502;9.146;2022-12-11T08:34:09;1.95;;;1.00;;
24644;SDS011;12780;45.502;9.146;2022-12-11T08:36:37;3.50;;;1.33;;
24644;SDS011;12780;45.502;9.146;2022-12-11T08:39:03;1.58;;;1.00;;
24644;SDS011;12780;45.502;9.146;2022-12-11T08:41:29;2.28;;;1.33;;
24644;SDS011;12780;45.502;9.146;2022-12-11T08:43:55;3.13;;;1.33;;
24644;SDS011;12780;45.502;9.146;2022-12-11T08:46:23;4.63;;;1.35;;
24644;SDS011;12780;45.502;9.146;2022-12-11T08:48:50;12.07;;;5.20;;
24644;SDS011;12780;45.502;9.146;2022-12-11T08:51:17;7.05;;;2.60;;
24644;SDS011;12780;45.502;9.146;2022-12-11T08:53:46;5.88;;;1.95;;
24644;SDS011;12780;45.502;9.146;2022-12-11T08:56:13;3.35;;;1.60;;
24644;SDS011;12780;45.502;9.146;2022-12-11T08:58:40;2.95;;;1.27;;
24644;SDS011;12780;45.502;9.146;2022-12-11T09:01:07;4.18;;;1.15;;
24644;SDS011;12780;45.502;9.146;2022-12-11T09:03:34;2.85;;;1.15;;
24644;SDS011;12780;45.502;9.146;2022-12-11T09:06:07;4.40;;;1.20;;
24644;SDS011;12780;45.502;9.146;2022-12-11T09:08:36;4.55;;;1.20;;
24644;SDS011;12780;45.502;9.146;2022-12-11T09:11:03;2.15;;;1.25;;
24644;SDS011;12780;45.502;9.146;2022-12-11T09:13:33;2.05;;;1.40;;
24644;SDS011;12780;45.502;9.146;2022-12-11T09:15:59;2.92;;;1.23;;
24644;SDS011;12780;45.502;9.146;2022-12-11T09:18:25;1.58;;;1.10;;
24644;SDS011;12780;45.502;9.146;2022-12-11T09:20:57;2.50;;;1.30;;
24644;SDS011;12780;45.502;9.146;2022-12-11T09:23:27;6.07;;;1.55;;
24644;SDS011;12780;45.502;9.146;2022-12-11T09:25:53;2.80;;;1.20;;
24644;SDS011;12780;45.502;9.146;2022-12-11T09:28:19;1.77;;;1.30;;
24644;SDS011;12780;45.502;9.146;2022-12-11T09:30:44;5.00;;;2.50;;
24644;SDS011;12780;45.502;9.146;2022-12-11T09:33:10;7.18;;;2.30;;
24644;SDS011;12780;45.502;9.146;2022-12-11T09:35:35;4.43;;;2.13;;
24644;SDS011;12780;45.502;9.146;2022-12-11T09:38:01;2.38;;;1.35;;
24644;SDS011;12780;45.502;9.146;2022-12-11T09:40:27;2.50;;;1.40;;
24644;SDS011;12780;45.502;9.146;2022-12-11T09:43:00;5.25;;;1.63;;
24644;SDS011;12780;45.502;9.146;2022-12-11T09:45:30;2.65;;;1.40;;
24644;SDS011;12780;45.502;9.146;2022-12-11T09:47:56;2.92;;;1.65;;
24644;SDS011;12780;45.502;9.146;2022-12-11T09:50:26;4.55;;;1.60;;
24644;SDS011;12780;45.502;9.146;2022-12-11T09:55:43;3.42;;;1.90;;
24644;SDS011;12780;45.502;9.146;2022-12-11T09:58:36;5.18;;;2.30;;
24644;SDS011;12780;45.502;9.146;2022-12-11T10:01:25;6.15;;;2.00;;
24644;SDS011;12780;45.502;9.146;2022-12-11T10:06:41;3.25;;;2.15;;
24644;SDS011;12780;45.502;9.146;2022-12-11T10:14:30;5.78;;;2.63;;
24644;SDS011;12780;45.502;9.146;2022-12-11T10:17:19;5.75;;;2.97;;
24644;SDS011;12780;45.502;9.146;2022-12-11T10:19:56;4.78;;;3.00;;
24644;SDS011;12780;45.502;9.146;2022-12-11T10:22:27;6.07;;;3.47;;
24644;SDS011;12780;45.502;9.146;2022-12-11T10:24:57;8.38;;;3.50;;
24644;SDS011;12780;45.502;9.146;2022-12-11T10:27:29;5.10;;;3.20;;
24644;SDS011;12780;45.502;9.146;2022-12-11T10:38:27;6.47;;;3.72;;
24644;SDS011;12780;45.502;9.146;2022-12-11T10:40:58;5.00;;;3.20;;
24644;SDS011;12780;45.502;9.146;2022-12-11T10:46:00;6.40;;;3.75;;
24644;SDS011;12780;45.502;9.146;2022-12-11T10:48:27;8.23;;;3.47;;
24644;SDS011;12780;45.502;9.146;2022-12-11T10:50:57;9.65;;;4.40;;
24644;SDS011;12780;45.502;9.146;2022-12-11T10:53:30;9.35;;;4.60;;
24644;SDS011;12780;45.502;9.146;2022-12-11T10:55:57;7.38;;;5.18;;
24644;SDS011;12780;45.502;9.146;2022-12-11T10:58:25;10.57;;;4.82;;
24644;SDS011;12780;45.502;9.146;2022-12-11T11:03:50;8.23;;;4.30;;
24644;SDS011;12780;45.502;9.146;2022-12-11T11:08:46;9.23;;;5.30;;
24644;SDS011;12780;45.502;9.146;2022-12-11T11:11:19;11.65;;;6.20;;
24644;SDS011;12780;45.502;9.146;2022-12-11T11:13:49;15.55;;;5.70;;
24644;SDS011;12780;45.502;9.146;2022-12-11T11:16:16;12.15;;;6.28;;
24644;SDS011;12780;45.502;9.146;2022-12-11T11:18:50;13.05;;;6.07;;
24644;SDS011;12780;45.502;9.146;2022-12-11T11:21:19;10.70;;;5.93;;
24644;SDS011;12780;45.502;9.146;2022-12-11T11:23:50;12.65;;;6.07;;
24644;SDS011;12780;45.502;9.146;2022-12-11T11:26:16;13.25;;;6.05;;
24644;SDS011;12780;45.502;9.146;2022-12-11T11:28:47;11.70;;;6.40;;
24644;SDS011;12780;45.502;9.146;2022-12-11T11:31:16;15.48;;;8.13;;
24644;SDS011;12780;45.502;9.146;2022-12-11T11:33:56;16.95;;;7.15;;
24644;SDS011;12780;45.502;9.146;2022-12-11T11:38:59;15.43;;;8.13;;
24644;SDS011;12780;45.502;9.146;2022-12-11T11:44:27;13.52;;;7.45;;
24644;SDS011;12780;45.502;9.146;2022-12-11T11:47:01;15.85;;;7.60;;
24644;SDS011;12780;45.502;9.146;2022-12-11T11:49:46;12.00;;;6.70;;
24644;SDS011;12780;45.502;9.146;2022-12-11T11:52:39;10.15;;;6.35;;
24644;SDS011;12780;45.502;9.146;2022-12-11T11:58:08;13.40;;;6.45;;
24644;SDS011;12780;45.502;9.146;2022-12-11T12:00:41;9.25;;;5.97;;
24644;SDS011;12780;45.502;9.146;2022-12-11T12:03:08;9.88;;;5.72;;
24644;SDS011;12780;45.502;9.146;2022-12-11T12:08:31;11.63;;;6.38;;
24644;SDS011;12780;45.502;9.146;2022-12-11T12:11:38;9.05;;;5.63;;
24644;SDS011;12780;45.502;9.146;2022-12-11T12:14:13;9.50;;;5.50;;
24644;SDS011;12780;45.502;9.146;2022-12-11T12:25:02;9.00;;;5.10;;
24644;SDS011;12780;45.502;9.146;2022-12-11T12:31:08;9.47;;;4.83;;
24644;SDS011;12780;45.502;9.146;2022-12-11T12:33:46;8.65;;;4.55;;
24644;SDS011;12780;45.502;9.146;2022-12-11T12:36:32;8.30;;;4.68;;
24644;SDS011;12780;45.502;9.146;2022-12-11T12:39:19;8.30;;;4.90;;
24644;SDS011;12780;45.502;9.146;2022-12-11T12:47:12;8.02;;;5.30;;
24644;SDS011;12780;45.502;9.146;2022-12-11T12:49:44;9.50;;;5.55;;
24644;SDS011;12780;45.502;9.146;2022-12-11T12:52:13;7.68;;;5.05;;
24644;SDS011;12780;45.502;9.146;2022-12-11T12:54:56;11.65;;;5.00;;
24644;SDS011;12780;45.502;9.146;2022-12-11T12:57:44;10.48;;;5.15;;
24644;SDS011;12780;45.502;9.146;2022-12-11T13:00:30;7.45;;;4.70;;
24644;SDS011;12780;45.502;9.146;2022-12-11T13:02:58;7.90;;;4.60;;
24644;SDS011;12780;45.502;9.146;2022-12-11T13:05:31;9.18;;;5.10;;
24644;SDS011;12780;45.502;9.146;2022-12-11T13:07:59;8.45;;;4.68;;
24644;SDS011;12780;45.502;9.146;2022-12-11T13:10:29;9.95;;;5.15;;
24644;SDS011;12780;45.502;9.146;2022-12-11T13:13:03;10.52;;;5.25;;
24644;SDS011;12780;45.502;9.146;2022-12-11T13:21:03;9.25;;;5.50;;
24644;SDS011;12780;45.502;9.146;2022-12-11T13:23:53;11.10;;;6.00;;
24644;SDS011;12780;45.502;9.146;2022-12-11T13:26:27;9.73;;;5.45;;
24644;SDS011;12780;45.502;9.146;2022-12-11T13:28:54;11.48;;;5.50;;
24644;SDS011;12780;45.502;9.146;2022-12-11T13:31:24;9.70;;;5.65;;
24644;SDS011;12780;45.502;9.146;2022-12-11T13:33:56;8.82;;;5.50;;
24644;SDS011;12780;45.502;9.146;2022-12-11T13:36:32;8.63;;;5.60;;
24644;SDS011;12780;45.502;9.146;2022-12-11T13:41:46;9.85;;;5.80;;
24644;SDS011;12780;45.502;9.146;2022-12-11T13:46:46;9.55;;;5.38;;
24644;SDS011;12780;45.502;9.146;2022-12-11T13:49:21;9.88;;;5.72;;
24644;SDS011;12780;45.502;9.146;2022-12-11T13:51:50;9.63;;;5.20;;
24644;SDS011;12780;45.502;9.146;2022-12-11T13:54:17;10.40;;;5.40;;
24644;SDS011;12780;45.502;9.146;2022-12-11T13:59:22;10.75;;;5.53;;
24644;SDS011;12780;45.502;9.146;2022-12-11T14:01:57;13.75;;;5.50;;
24644;SDS011;12780;45.502;9.146;2022-12-11T14:04:27;12.43;;;6.05;;
24644;SDS011;12780;45.502;9.146;2022-12-11T14:06:54;9.70;;;5.75;;
24644;SDS011;12780;45.502;9.146;2022-12-11T14:09:22;12.60;;;5.95;;
24644;SDS011;12780;45.502;9.146;2022-12-11T14:11:50;11.80;;;5.78;;
24644;SDS011;12780;45.502;9.146;2022-12-11T14:17:10;12.65;;;7.20;;
24644;SDS011;12780;45.502;9.146;2022-12-11T14:19:39;13.27;;;6.50;;
24644;SDS011;12780;45.502;9.146;2022-12-11T14:22:21;10.18;;;6.28;;
24644;SDS011;12780;45.502;9.146;2022-12-11T14:24:48;10.27;;;5.75;;
24644;SDS011;12780;45.502;9.146;2022-12-11T14:27:22;9.10;;;5.20;;
24644;SDS011;12780;45.502;9.146;2022-12-11T14:29:49;8.82;;;5.50;;
24644;SDS011;12780;45.502;9.146;2022-12-11T14:32:28;10.13;;;5.72;;
24644;SDS011;12780;45.502;9.146;2022-12-11T14:34:56;10.52;;;6.00;;
24644;SDS011;12780;45.502;9.146;2022-12-11T14:37:23;15.43;;;6.15;;
24644;SDS011;12780;45.502;9.146;2022-12-11T14:39:55;13.00;;;5.75;;
24644;SDS011;12780;45.502;9.146;2022-12-11T14:42:29;14.65;;;5.40;;
24644;SDS011;12780;45.502;9.146;2022-12-11T14:47:48;10.50;;;5.82;;
24644;SDS011;12780;45.502;9.146;2022-12-11T14:53:06;7.90;;;4.80;;
24644;SDS011;12780;45.502;9.146;2022-12-11T14:56:00;9.82;;;5.20;;
24644;SDS011;12780;45.502;9.146;2022-12-11T14:58:28;9.38;;;5.45;;
24644;SDS011;12780;45.502;9.146;2022-12-11T15:00:59;7.85;;;5.10;;
24644;SDS011;12780;45.502;9.146;2022-12-11T15:05:58;9.30;;;5.32;;
24644;SDS011;12780;45.502;9.146;2022-12-11T15:13:52;10.00;;;4.72;;
24644;SDS011;12780;45.502;9.146;2022-12-11T15:16:27;9.85;;;5.05;;
24644;SDS011;12780;45.502;9.146;2022-12-11T15:18:56;8.55;;;5.20;;
24644;SDS011;12780;45.502;9.146;2022-12-11T15:21:30;12.68;;;5.45;;
24644;SDS011;12780;45.502;9.146;2022-12-11T15:23:58;9.13;;;5.38;;
24644;SDS011;12780;45.502;9.146;2022-12-11T15:26:33;11.13;;;5.40;;
24644;SDS011;12780;45.502;9.146;2022-12-11T15:29:02;10.38;;;6.22;;
24644;SDS011;12780;45.502;9.146;2022-12-11T15:31:31;12.30;;;6.40;;
24644;SDS011;12780;45.502;9.146;2022-12-11T15:33:59;11.20;;;6.00;;
24644;SDS011;12780;45.502;9.146;2022-12-11T15:36:34;11.80;;;5.90;;
24644;SDS011;12780;45.502;9.146;2022-12-11T15:39:01;10.10;;;6.07;;
24644;SDS011;12780;45.502;9.146;2022-12-11T15:41:29;12.32;;;6.45;;
24644;SDS011;12780;45.502;9.146;2022-12-11T15:43:59;10.68;;;6.55;;
24644;SDS011;12780;45.502;9.146;2022-12-11T15:46:27;9.88;;;6.15;;
24644;SDS011;12780;45.502;9.146;2022-12-11T15:48:53;11.35;;;6.55;;
24644;SDS011;12780;45.502;9.146;2022-12-11T15:51:20;11.82;;;6.05;;
24644;SDS011;12780;45.502;9.146;2022-12-11T15:53:47;9.88;;;6.47;;
24644;SDS011;12780;45.502;9.146;2022-12-11T15:56:16;11.45;;;6.28;;
24644;SDS011;12780;45.502;9.146;2022-12-11T15:58:43;11.98;;;6.90;;
24644;SDS011;12780;45.502;9.146;2022-12-11T16:01:11;11.05;;;6.50;;
24644;SDS011;12780;45.502;9.146;2022-12-11T16:03:36;15.30;;;6.47;;
24644;SDS011;12780;45.502;9.146;2022-12-11T16:06:02;12.68;;;6.38;;
24644;SDS011;12780;45.502;9.146;2022-12-11T16:08:28;12.02;;;6.75;;
24644;SDS011;12780;45.502;9.146;2022-12-11T16:10:53;12.13;;;6.25;;
24644;SDS011;12780;45.502;9.146;2022-12-11T16:13:19;11.40;;;6.20;;
24644;SDS011;12780;45.502;9.146;2022-12-11T16:15:48;11.88;;;6.38;;
24644;SDS011;12780;45.502;9.146;2022-12-11T16:18:16;11.38;;;6.78;;
24644;SDS011;12780;45.502;9.146;2022-12-11T16:20:44;11.88;;;6.90;;
24644;SDS011;12780;45.502;9.146;2022-12-11T16:23:11;14.13;;;6.65;;
24644;SDS011;12780;45.502;9.146;2022-12-11T16:25:37;14.50;;;6.57;;
24644;SDS011;12780;45.502;9.146;2022-12-11T16:28:04;14.77;;;6.63;;
24644;SDS011;12780;45.502;9.146;2022-12-11T16:30:32;12.55;;;6.50;;
24644;SDS011;12780;45.502;9.146;2022-12-11T16:32:59;12.00;;;6.07;;
24644;SDS011;12780;45.502;9.146;2022-12-11T16:35:25;10.77;;;6.35;;
24644;SDS011;12780;45.502;9.146;2022-12-11T16:37:51;13.15;;;6.68;;